sensor_id;sensor_type;location;lat;lon;timestamp;temperature;humidity
8862;DHT22;4799;50.996;4.754;2022-12-29T00:01:36;11.50;99.90
8862;DHT22;4799;50.996;4.754;2022-12-29T00:04:03;11.60;99.90
8862;DHT22;4799;50.996;4.754;2022-12-29T00:06:29;11.60;99.90
8862;DHT22;4799;50.996;4.754;2022-12-29T00:08:55;11.60;99.90
8862;DHT22;4799;50.996;4.754;2022-12-29T00:11:23;11.70;99.90
8862;DHT22;4799;50.996;4.754;2022-12-29T00:13:50;11.70;99.90
8862;DHT22;4799;50.996;4.754;2022-12-29T00:16:35;11.70;99.90
8862;DHT22;4799;50.996;4.754;2022-12-29T00:19:02;11.80;99.90
8862;DHT22;4799;50.996;4.754;2022-12-29T00:21:28;11.80;99.90
8862;DHT22;4799;50.996;4.754;2022-12-29T00:24:21;11.80;99.90
8862;DHT22;4799;50.996;4.754;2022-12-29T00:27:10;11.80;99.90
8862;DHT22;4799;50.996;4.754;2022-12-29T00:29:55;11.80;99.90
8862;DHT22;4799;50.996;4.754;2022-12-29T00:32:40;11.80;99.90
8862;DHT22;4799;50.996;4.754;2022-12-29T00:35:39;11.80;99.90
8862;DHT22;4799;50.996;4.754;2022-12-29T00:38:10;11.80;99.90
8862;DHT22;4799;50.996;4.754;2022-12-29T00:40:55;11.80;99.90
8862;DHT22;4799;50.996;4.754;2022-12-29T00:43:39;11.80;99.90
8862;DHT22;4799;50.996;4.754;2022-12-29T00:46:24;11.80;99.90
8862;DHT22;4799;50.996;4.754;2022-12-29T00:48:49;11.70;99.90
8862;DHT22;4799;50.996;4.754;2022-12-29T00:51:34;11.70;99.90
8862;DHT22;4799;50.996;4.754;2022-12-29T00:54:00;11.80;99.90
8862;DHT22;4799;50.996;4.754;2022-12-29T00:56:25;11.80;99.90
8862;DHT22;4799;50.996;4.754;2022-12-29T00:58:51;11.80;99.90
8862;DHT22;4799;50.996;4.754;2022-12-29T01:01:17;11.80;99.90
8862;DHT22;4799;50.996;4.754;2022-12-29T01:03:42;11.90;99.90
8862;DHT22;4799;50.996;4.754;2022-12-29T01:06:10;11.90;99.90
8862;DHT22;4799;50.996;4.754;2022-12-29T01:08:36;11.90;99.90
8862;DHT22;4799;50.996;4.754;2022-12-29T01:11:12;11.90;99.90
8862;DHT22;4799;50.996;4.754;2022-12-29T01:13:38;12.00;99.90
8862;DHT22;4799;50.996;4.754;2022-12-29T01:16:06;12.00;99.90
8862;DHT22;4799;50.996;4.754;2022-12-29T01:18:32;12.00;99.90
8862;DHT22;4799;50.996;4.754;2022-12-29T01:21:03;12.00;99.90
8862;DHT22;4799;50.996;4.754;2022-12-29T01:23:30;12.00;99.90
8862;DHT22;4799;50.996;4.754;2022-12-29T01:25:56;12.00;99.90
8862;DHT22;4799;50.996;4.754;2022-12-29T01:28:22;12.00;99.90
8862;DHT22;4799;50.996;4.754;2022-12-29T01:30:48;12.00;99.90
8862;DHT22;4799;50.996;4.754;2022-12-29T01:33:14;12.00;99.90
8862;DHT22;4799;50.996;4.754;2022-12-29T01:35:40;12.10;99.90
8862;DHT22;4799;50.996;4.754;2022-12-29T01:38:06;12.00;99.90
8862;DHT22;4799;50.996;4.754;2022-12-29T01:40:33;12.00;99.90
8862;DHT22;4799;50.996;4.754;2022-12-29T01:42:59;12.00;99.90
8862;DHT22;4799;50.996;4.754;2022-12-29T01:45:24;12.00;99.90
8862;DHT22;4799;50.996;4.754;2022-12-29T01:47:53;11.90;99.90
8862;DHT22;4799;50.996;4.754;2022-12-29T01:50:28;11.90;99.90
8862;DHT22;4799;50.996;4.754;2022-12-29T01:53:02;11.90;99.90
8862;DHT22;4799;50.996;4.754;2022-12-29T01:55:33;11.80;99.90
8862;DHT22;4799;50.996;4.754;2022-12-29T01:58:01;11.80;99.90
8862;DHT22;4799;50.996;4.754;2022-12-29T02:00:33;11.70;99.90
8862;DHT22;4799;50.996;4.754;2022-12-29T02:02:59;11.70;99.90
8862;DHT22;4799;50.996;4.754;2022-12-29T02:05:51;11.70;99.90
8862;DHT22;4799;50.996;4.754;2022-12-29T02:08:20;11.70;99.90
8862;DHT22;4799;50.996;4.754;2022-12-29T02:10:47;11.70;99.90
8862;DHT22;4799;50.996;4.754;2022-12-29T02:13:16;11.60;99.90
8862;DHT22;4799;50.996;4.754;2022-12-29T02:16:04;11.60;99.90
8862;DHT22;4799;50.996;4.754;2022-12-29T02:18:45;11.60;99.90
8862;DHT22;4799;50.996;4.754;2022-12-29T02:32:12;11.50;99.90
8862;DHT22;4799;50.996;4.754;2022-12-29T02:37:22;11.40;99.90
8862;DHT22;4799;50.996;4.754;2022-12-29T02:40:09;11.30;99.90
8862;DHT22;4799;50.996;4.754;2022-12-29T02:43:04;11.20;99.90
8862;DHT22;4799;50.996;4.754;2022-12-29T02:45:46;11.00;99.90
8862;DHT22;4799;50.996;4.754;2022-12-29T02:48:18;11.00;99.90
8862;DHT22;4799;50.996;4.754;2022-12-29T02:51:01;10.90;99.90
8862;DHT22;4799;50.996;4.754;2022-12-29T02:53:29;10.80;99.90
8862;DHT22;4799;50.996;4.754;2022-12-29T02:56:16;10.70;99.90
8862;DHT22;4799;50.996;4.754;2022-12-29T02:58:42;10.70;99.90
8862;DHT22;4799;50.996;4.754;2022-12-29T03:06:48;10.50;99.90
8862;DHT22;4799;50.996;4.754;2022-12-29T03:09:43;10.50;99.90
8862;DHT22;4799;50.996;4.754;2022-12-29T03:12:19;10.40;99.90
8862;DHT22;4799;50.996;4.754;2022-12-29T03:15:07;10.40;99.90
8862;DHT22;4799;50.996;4.754;2022-12-29T03:18:15;10.30;99.90
8862;DHT22;4799;50.996;4.754;2022-12-29T03:20:53;10.20;99.90
8862;DHT22;4799;50.996;4.754;2022-12-29T03:23:21;10.20;99.90
8862;DHT22;4799;50.996;4.754;2022-12-29T03:25:51;10.20;99.90
8862;DHT22;4799;50.996;4.754;2022-12-29T03:28:29;10.20;99.90
8862;DHT22;4799;50.996;4.754;2022-12-29T03:30:57;10.20;99.90
8862;DHT22;4799;50.996;4.754;2022-12-29T03:33:26;10.10;99.90
8862;DHT22;4799;50.996;4.754;2022-12-29T03:36:01;10.10;99.90
8862;DHT22;4799;50.996;4.754;2022-12-29T03:38:35;10.00;99.90
8862;DHT22;4799;50.996;4.754;2022-12-29T03:41:08;10.00;99.90
8862;DHT22;4799;50.996;4.754;2022-12-29T03:43:35;9.90;99.90
8862;DHT22;4799;50.996;4.754;2022-12-29T03:46:01;9.90;99.90
8862;DHT22;4799;50.996;4.754;2022-12-29T03:48:27;9.80;99.90
8862;DHT22;4799;50.996;4.754;2022-12-29T03:50:53;9.80;99.90
8862;DHT22;4799;50.996;4.754;2022-12-29T03:53:18;9.70;99.90
8862;DHT22;4799;50.996;4.754;2022-12-29T03:55:44;9.70;99.90
8862;DHT22;4799;50.996;4.754;2022-12-29T03:58:10;9.60;99.90
8862;DHT22;4799;50.996;4.754;2022-12-29T04:00:36;9.50;99.90
8862;DHT22;4799;50.996;4.754;2022-12-29T04:03:01;9.50;99.90
8862;DHT22;4799;50.996;4.754;2022-12-29T04:05:27;9.50;99.90
8862;DHT22;4799;50.996;4.754;2022-12-29T04:07:53;9.40;99.90
8862;DHT22;4799;50.996;4.754;2022-12-29T04:10:19;9.40;99.90
8862;DHT22;4799;50.996;4.754;2022-12-29T04:12:44;9.40;99.90
8862;DHT22;4799;50.996;4.754;2022-12-29T04:15:11;9.40;99.90
8862;DHT22;4799;50.996;4.754;2022-12-29T04:17:37;9.30;99.90
8862;DHT22;4799;50.996;4.754;2022-12-29T04:20:04;9.40;99.90
8862;DHT22;4799;50.996;4.754;2022-12-29T04:22:48;9.30;99.90
8862;DHT22;4799;50.996;4.754;2022-12-29T04:25:14;9.30;99.90
8862;DHT22;4799;50.996;4.754;2022-12-29T04:27:40;9.30;99.90
8862;DHT22;4799;50.996;4.754;2022-12-29T04:30:06;9.30;99.90
8862;DHT22;4799;50.996;4.754;2022-12-29T04:32:32;9.30;99.90
8862;DHT22;4799;50.996;4.754;2022-12-29T04:34:58;9.20;99.90
8862;DHT22;4799;50.996;4.754;2022-12-29T04:37:24;9.20;99.90
8862;DHT22;4799;50.996;4.754;2022-12-29T04:39:50;9.20;99.90
8862;DHT22;4799;50.996;4.754;2022-12-29T04:42:15;9.20;99.90
8862;DHT22;4799;50.996;4.754;2022-12-29T04:44:41;9.10;99.90
8862;DHT22;4799;50.996;4.754;2022-12-29T04:47:07;9.10;99.90
8862;DHT22;4799;50.996;4.754;2022-12-29T04:49:32;9.20;99.90
8862;DHT22;4799;50.996;4.754;2022-12-29T04:51:58;9.30;99.90
8862;DHT22;4799;50.996;4.754;2022-12-29T04:54:24;9.30;99.90
8862;DHT22;4799;50.996;4.754;2022-12-29T04:56:49;9.40;99.90
8862;DHT22;4799;50.996;4.754;2022-12-29T04:59:15;9.40;99.90
8862;DHT22;4799;50.996;4.754;2022-12-29T05:01:41;9.50;99.90
8862;DHT22;4799;50.996;4.754;2022-12-29T05:04:07;9.50;99.90
8862;DHT22;4799;50.996;4.754;2022-12-29T05:06:33;9.60;99.90
8862;DHT22;4799;50.996;4.754;2022-12-29T05:08:59;9.60;99.90
8862;DHT22;4799;50.996;4.754;2022-12-29T05:11:24;9.60;99.90
8862;DHT22;4799;50.996;4.754;2022-12-29T05:13:50;9.60;99.90
8862;DHT22;4799;50.996;4.754;2022-12-29T05:16:16;9.50;99.90
8862;DHT22;4799;50.996;4.754;2022-12-29T05:18:41;9.40;99.90
8862;DHT22;4799;50.996;4.754;2022-12-29T05:21:07;9.40;99.90
8862;DHT22;4799;50.996;4.754;2022-12-29T05:23:33;9.40;99.90
8862;DHT22;4799;50.996;4.754;2022-12-29T05:25:59;9.40;99.90
8862;DHT22;4799;50.996;4.754;2022-12-29T05:28:24;9.40;99.90
8862;DHT22;4799;50.996;4.754;2022-12-29T05:30:51;9.40;99.90
8862;DHT22;4799;50.996;4.754;2022-12-29T05:33:18;9.50;99.90
8862;DHT22;4799;50.996;4.754;2022-12-29T05:35:44;9.50;99.90
8862;DHT22;4799;50.996;4.754;2022-12-29T05:38:10;9.60;99.90
8862;DHT22;4799;50.996;4.754;2022-12-29T05:40:36;9.70;99.90
8862;DHT22;4799;50.996;4.754;2022-12-29T05:43:01;9.70;99.90
8862;DHT22;4799;50.996;4.754;2022-12-29T05:45:27;9.70;99.90
8862;DHT22;4799;50.996;4.754;2022-12-29T05:47:53;9.70;99.90
8862;DHT22;4799;50.996;4.754;2022-12-29T05:50:19;9.80;99.90
8862;DHT22;4799;50.996;4.754;2022-12-29T05:52:44;9.80;99.90
8862;DHT22;4799;50.996;4.754;2022-12-29T05:55:11;9.70;99.90
8862;DHT22;4799;50.996;4.754;2022-12-29T05:57:37;9.70;99.90
8862;DHT22;4799;50.996;4.754;2022-12-29T06:00:06;9.70;99.90
8862;DHT22;4799;50.996;4.754;2022-12-29T06:02:32;9.70;99.90
8862;DHT22;4799;50.996;4.754;2022-12-29T06:04:58;9.70;99.90
8862;DHT22;4799;50.996;4.754;2022-12-29T06:07:23;9.70;99.90
8862;DHT22;4799;50.996;4.754;2022-12-29T06:09:49;9.60;99.90
8862;DHT22;4799;50.996;4.754;2022-12-29T06:12:15;9.50;99.90
8862;DHT22;4799;50.996;4.754;2022-12-29T06:14:42;9.50;99.90
8862;DHT22;4799;50.996;4.754;2022-12-29T06:17:07;9.60;99.90
8862;DHT22;4799;50.996;4.754;2022-12-29T06:19:33;9.60;99.90
8862;DHT22;4799;50.996;4.754;2022-12-29T06:21:59;9.60;99.90
8862;DHT22;4799;50.996;4.754;2022-12-29T06:24:24;9.60;99.90
8862;DHT22;4799;50.996;4.754;2022-12-29T06:26:50;9.60;99.90
8862;DHT22;4799;50.996;4.754;2022-12-29T06:29:16;9.60;99.90
8862;DHT22;4799;50.996;4.754;2022-12-29T06:31:43;9.50;99.90
8862;DHT22;4799;50.996;4.754;2022-12-29T06:34:11;9.50;99.90
8862;DHT22;4799;50.996;4.754;2022-12-29T06:36:38;9.50;99.90
8862;DHT22;4799;50.996;4.754;2022-12-29T06:39:04;9.50;99.90
8862;DHT22;4799;50.996;4.754;2022-12-29T06:41:29;9.50;99.90
8862;DHT22;4799;50.996;4.754;2022-12-29T06:43:58;9.50;99.90
8862;DHT22;4799;50.996;4.754;2022-12-29T06:46:24;9.50;99.90
8862;DHT22;4799;50.996;4.754;2022-12-29T06:48:49;9.50;99.90
8862;DHT22;4799;50.996;4.754;2022-12-29T06:51:15;9.60;99.90
8862;DHT22;4799;50.996;4.754;2022-12-29T06:53:41;9.70;99.90
8862;DHT22;4799;50.996;4.754;2022-12-29T06:56:07;9.70;99.90
8862;DHT22;4799;50.996;4.754;2022-12-29T06:58:33;9.70;99.90
8862;DHT22;4799;50.996;4.754;2022-12-29T07:00:59;9.80;99.90
8862;DHT22;4799;50.996;4.754;2022-12-29T07:03:24;9.80;99.90
8862;DHT22;4799;50.996;4.754;2022-12-29T07:05:50;9.90;99.90
8862;DHT22;4799;50.996;4.754;2022-12-29T07:08:16;9.90;99.90
8862;DHT22;4799;50.996;4.754;2022-12-29T07:10:42;9.90;99.90
8862;DHT22;4799;50.996;4.754;2022-12-29T07:13:08;9.90;99.90
8862;DHT22;4799;50.996;4.754;2022-12-29T07:15:35;9.90;99.90
8862;DHT22;4799;50.996;4.754;2022-12-29T07:18:01;9.90;99.90
8862;DHT22;4799;50.996;4.754;2022-12-29T07:20:28;9.80;99.90
8862;DHT22;4799;50.996;4.754;2022-12-29T07:22:54;9.90;99.90
8862;DHT22;4799;50.996;4.754;2022-12-29T07:25:20;9.90;99.90
8862;DHT22;4799;50.996;4.754;2022-12-29T07:27:45;9.90;99.90
8862;DHT22;4799;50.996;4.754;2022-12-29T07:30:12;9.90;99.90
8862;DHT22;4799;50.996;4.754;2022-12-29T07:32:37;9.90;99.90
8862;DHT22;4799;50.996;4.754;2022-12-29T07:35:03;9.90;99.90
8862;DHT22;4799;50.996;4.754;2022-12-29T07:37:29;10.00;99.90
8862;DHT22;4799;50.996;4.754;2022-12-29T07:39:55;10.00;99.90
8862;DHT22;4799;50.996;4.754;2022-12-29T07:42:20;10.10;99.90
8862;DHT22;4799;50.996;4.754;2022-12-29T07:44:46;10.00;99.90
8862;DHT22;4799;50.996;4.754;2022-12-29T07:47:12;10.00;99.90
8862;DHT22;4799;50.996;4.754;2022-12-29T07:49:38;10.10;99.90
8862;DHT22;4799;50.996;4.754;2022-12-29T07:52:03;10.10;99.90
8862;DHT22;4799;50.996;4.754;2022-12-29T07:54:29;10.20;99.90
8862;DHT22;4799;50.996;4.754;2022-12-29T07:56:55;10.20;99.90
8862;DHT22;4799;50.996;4.754;2022-12-29T07:59:21;10.20;99.90
8862;DHT22;4799;50.996;4.754;2022-12-29T08:01:46;10.20;99.90
8862;DHT22;4799;50.996;4.754;2022-12-29T08:04:12;10.30;99.90
8862;DHT22;4799;50.996;4.754;2022-12-29T08:06:38;10.30;99.90
8862;DHT22;4799;50.996;4.754;2022-12-29T08:09:04;10.30;99.90
8862;DHT22;4799;50.996;4.754;2022-12-29T08:11:29;10.40;99.90
8862;DHT22;4799;50.996;4.754;2022-12-29T08:13:55;10.40;99.90
8862;DHT22;4799;50.996;4.754;2022-12-29T08:16:21;10.50;99.90
8862;DHT22;4799;50.996;4.754;2022-12-29T08:18:47;10.50;99.90
8862;DHT22;4799;50.996;4.754;2022-12-29T08:21:12;10.60;99.90
8862;DHT22;4799;50.996;4.754;2022-12-29T08:23:38;10.60;99.90
8862;DHT22;4799;50.996;4.754;2022-12-29T08:26:05;10.60;99.90
8862;DHT22;4799;50.996;4.754;2022-12-29T08:28:31;10.60;99.90
8862;DHT22;4799;50.996;4.754;2022-12-29T08:30:58;10.60;99.90
8862;DHT22;4799;50.996;4.754;2022-12-29T08:33:24;10.60;99.90
8862;DHT22;4799;50.996;4.754;2022-12-29T08:35:50;10.60;99.90
8862;DHT22;4799;50.996;4.754;2022-12-29T08:38:16;10.60;99.90
8862;DHT22;4799;50.996;4.754;2022-12-29T08:40:43;10.60;99.90
8862;DHT22;4799;50.996;4.754;2022-12-29T08:43:09;10.60;99.90
8862;DHT22;4799;50.996;4.754;2022-12-29T08:45:35;10.60;99.90
8862;DHT22;4799;50.996;4.754;2022-12-29T08:48:01;10.60;99.90
8862;DHT22;4799;50.996;4.754;2022-12-29T08:50:26;10.60;99.90
8862;DHT22;4799;50.996;4.754;2022-12-29T08:52:52;10.60;99.90
8862;DHT22;4799;50.996;4.754;2022-12-29T08:55:18;10.60;99.90
8862;DHT22;4799;50.996;4.754;2022-12-29T08:57:44;10.60;99.90
8862;DHT22;4799;50.996;4.754;2022-12-29T09:00:10;10.60;99.90
8862;DHT22;4799;50.996;4.754;2022-12-29T09:02:36;10.60;99.90
8862;DHT22;4799;50.996;4.754;2022-12-29T09:05:01;10.60;99.90
8862;DHT22;4799;50.996;4.754;2022-12-29T09:07:27;10.60;99.90
8862;DHT22;4799;50.996;4.754;2022-12-29T09:09:53;10.70;99.90
8862;DHT22;4799;50.996;4.754;2022-12-29T09:12:20;10.70;99.90
8862;DHT22;4799;50.996;4.754;2022-12-29T09:14:46;10.70;99.90
8862;DHT22;4799;50.996;4.754;2022-12-29T09:17:12;10.80;99.90
8862;DHT22;4799;50.996;4.754;2022-12-29T09:19:56;10.80;99.90
8862;DHT22;4799;50.996;4.754;2022-12-29T09:22:22;10.90;99.90
8862;DHT22;4799;50.996;4.754;2022-12-29T09:24:47;10.90;99.90
8862;DHT22;4799;50.996;4.754;2022-12-29T09:27:13;10.90;99.90
8862;DHT22;4799;50.996;4.754;2022-12-29T09:29:39;10.90;99.90
8862;DHT22;4799;50.996;4.754;2022-12-29T09:32:05;11.00;99.90
8862;DHT22;4799;50.996;4.754;2022-12-29T09:34:30;11.00;99.90
8862;DHT22;4799;50.996;4.754;2022-12-29T09:36:56;11.00;99.90
8862;DHT22;4799;50.996;4.754;2022-12-29T09:39:22;11.00;99.90
8862;DHT22;4799;50.996;4.754;2022-12-29T09:42:05;11.00;99.90
8862;DHT22;4799;50.996;4.754;2022-12-29T09:47:29;11.00;99.90
8862;DHT22;4799;50.996;4.754;2022-12-29T09:50:28;11.00;99.90
8862;DHT22;4799;50.996;4.754;2022-12-29T09:55:52;10.90;99.90
8862;DHT22;4799;50.996;4.754;2022-12-29T10:01:32;11.00;99.90
8862;DHT22;4799;50.996;4.754;2022-12-29T10:03:59;11.00;99.90
8862;DHT22;4799;50.996;4.754;2022-12-29T10:06:37;11.00;99.90
8862;DHT22;4799;50.996;4.754;2022-12-29T10:12:20;11.00;99.90
8862;DHT22;4799;50.996;4.754;2022-12-29T10:25:39;11.10;99.90
8862;DHT22;4799;50.996;4.754;2022-12-29T10:30:43;11.30;99.90
8862;DHT22;4799;50.996;4.754;2022-12-29T10:33:17;11.40;99.90
8862;DHT22;4799;50.996;4.754;2022-12-29T10:35:44;11.50;99.90
8862;DHT22;4799;50.996;4.754;2022-12-29T10:43:28;11.70;99.90
8862;DHT22;4799;50.996;4.754;2022-12-29T10:46:00;11.70;99.90
8862;DHT22;4799;50.996;4.754;2022-12-29T10:48:32;11.70;99.90
8862;DHT22;4799;50.996;4.754;2022-12-29T10:51:01;11.70;99.90
8862;DHT22;4799;50.996;4.754;2022-12-29T10:53:41;11.80;99.90
8862;DHT22;4799;50.996;4.754;2022-12-29T10:56:46;11.90;99.90
8862;DHT22;4799;50.996;4.754;2022-12-29T11:02:04;12.00;99.90
8862;DHT22;4799;50.996;4.754;2022-12-29T11:07:17;12.10;99.90
8862;DHT22;4799;50.996;4.754;2022-12-29T11:09:45;12.10;99.90
8862;DHT22;4799;50.996;4.754;2022-12-29T11:12:23;12.10;99.90
8862;DHT22;4799;50.996;4.754;2022-12-29T11:17:48;12.20;99.90
8862;DHT22;4799;50.996;4.754;2022-12-29T11:20:34;12.20;99.90
8862;DHT22;4799;50.996;4.754;2022-12-29T11:23:01;12.20;99.90
8862;DHT22;4799;50.996;4.754;2022-12-29T11:25:27;12.20;99.90
8862;DHT22;4799;50.996;4.754;2022-12-29T11:27:59;12.10;99.90
8862;DHT22;4799;50.996;4.754;2022-12-29T11:30:28;12.10;99.90
8862;DHT22;4799;50.996;4.754;2022-12-29T11:32:57;12.10;99.90
8862;DHT22;4799;50.996;4.754;2022-12-29T11:37:58;12.10;99.90
8862;DHT22;4799;50.996;4.754;2022-12-29T11:40:24;12.10;99.90
8862;DHT22;4799;50.996;4.754;2022-12-29T11:45:26;12.20;99.90
8862;DHT22;4799;50.996;4.754;2022-12-29T11:48:01;12.10;99.90
8862;DHT22;4799;50.996;4.754;2022-12-29T11:50:33;12.10;99.90
8862;DHT22;4799;50.996;4.754;2022-12-29T11:53:26;12.10;99.90
8862;DHT22;4799;50.996;4.754;2022-12-29T11:55:57;12.10;99.90
8862;DHT22;4799;50.996;4.754;2022-12-29T11:58:35;12.10;99.90
8862;DHT22;4799;50.996;4.754;2022-12-29T12:06:32;11.90;99.90
8862;DHT22;4799;50.996;4.754;2022-12-29T12:09:06;11.90;99.90
8862;DHT22;4799;50.996;4.754;2022-12-29T12:11:35;11.80;99.90
8862;DHT22;4799;50.996;4.754;2022-12-29T12:14:19;11.90;99.90
8862;DHT22;4799;50.996;4.754;2022-12-29T12:16:52;11.80;99.90
8862;DHT22;4799;50.996;4.754;2022-12-29T12:22:34;11.70;99.90
8862;DHT22;4799;50.996;4.754;2022-12-29T12:27:43;11.60;99.90
8862;DHT22;4799;50.996;4.754;2022-12-29T12:30:16;11.50;99.90
8862;DHT22;4799;50.996;4.754;2022-12-29T12:32:58;11.50;99.90
8862;DHT22;4799;50.996;4.754;2022-12-29T12:44:18;11.60;99.90
8862;DHT22;4799;50.996;4.754;2022-12-29T12:46:52;11.60;99.90
8862;DHT22;4799;50.996;4.754;2022-12-29T13:00:17;11.80;99.90
8862;DHT22;4799;50.996;4.754;2022-12-29T13:03:13;11.80;99.90
8862;DHT22;4799;50.996;4.754;2022-12-29T13:14:17;11.70;99.90
8862;DHT22;4799;50.996;4.754;2022-12-29T13:17:05;11.70;99.90
8862;DHT22;4799;50.996;4.754;2022-12-29T13:19:41;11.60;99.90
8862;DHT22;4799;50.996;4.754;2022-12-29T13:22:16;11.60;99.90
8862;DHT22;4799;50.996;4.754;2022-12-29T13:30:10;11.40;99.90
8862;DHT22;4799;50.996;4.754;2022-12-29T13:40:40;11.10;99.90
8862;DHT22;4799;50.996;4.754;2022-12-29T13:43:07;11.00;99.90
8862;DHT22;4799;50.996;4.754;2022-12-29T13:45:34;10.90;99.90
8862;DHT22;4799;50.996;4.754;2022-12-29T13:48:16;11.00;99.90
8862;DHT22;4799;50.996;4.754;2022-12-29T13:50:46;10.90;99.90
8862;DHT22;4799;50.996;4.754;2022-12-29T13:56:15;11.00;99.90
8862;DHT22;4799;50.996;4.754;2022-12-29T13:59:24;11.00;99.90
8862;DHT22;4799;50.996;4.754;2022-12-29T14:05:27;11.30;99.90
8862;DHT22;4799;50.996;4.754;2022-12-29T14:07:58;11.30;99.90
8862;DHT22;4799;50.996;4.754;2022-12-29T14:13:24;11.20;99.90
8862;DHT22;4799;50.996;4.754;2022-12-29T14:15:56;11.20;99.90
8862;DHT22;4799;50.996;4.754;2022-12-29T14:18:32;11.20;99.90
8862;DHT22;4799;50.996;4.754;2022-12-29T14:23:41;11.20;99.90
8862;DHT22;4799;50.996;4.754;2022-12-29T14:28:35;11.10;99.90
8862;DHT22;4799;50.996;4.754;2022-12-29T14:31:04;11.10;99.90
8862;DHT22;4799;50.996;4.754;2022-12-29T14:33:32;11.10;99.90
8862;DHT22;4799;50.996;4.754;2022-12-29T14:36:21;11.10;99.90
8862;DHT22;4799;50.996;4.754;2022-12-29T14:38:48;11.20;99.90
8862;DHT22;4799;50.996;4.754;2022-12-29T14:41:35;11.10;99.90
8862;DHT22;4799;50.996;4.754;2022-12-29T14:44:20;11.10;99.90
8862;DHT22;4799;50.996;4.754;2022-12-29T14:49:22;11.10;99.90
8862;DHT22;4799;50.996;4.754;2022-12-29T14:51:51;11.00;99.90
8862;DHT22;4799;50.996;4.754;2022-12-29T14:54:42;11.00;99.90
8862;DHT22;4799;50.996;4.754;2022-12-29T15:00:00;10.10;99.90
8862;DHT22;4799;50.996;4.754;2022-12-29T15:02:32;9.80;99.90
8862;DHT22;4799;50.996;4.754;2022-12-29T15:05:00;9.60;99.90
8862;DHT22;4799;50.996;4.754;2022-12-29T15:07:28;9.40;99.90
8862;DHT22;4799;50.996;4.754;2022-12-29T15:10:00;9.30;99.90
8862;DHT22;4799;50.996;4.754;2022-12-29T15:12:43;9.10;99.90
8862;DHT22;4799;50.996;4.754;2022-12-29T15:15:24;9.10;99.90
8862;DHT22;4799;50.996;4.754;2022-12-29T15:17:50;9.00;99.90
8862;DHT22;4799;50.996;4.754;2022-12-29T15:20:30;8.90;99.90
8862;DHT22;4799;50.996;4.754;2022-12-29T15:23:11;8.90;99.90
8862;DHT22;4799;50.996;4.754;2022-12-29T15:26:07;8.90;99.90
8862;DHT22;4799;50.996;4.754;2022-12-29T15:28:43;8.80;99.90
8862;DHT22;4799;50.996;4.754;2022-12-29T15:31:15;8.70;99.90
8862;DHT22;4799;50.996;4.754;2022-12-29T15:33:43;8.70;99.90
8862;DHT22;4799;50.996;4.754;2022-12-29T15:36:24;8.60;99.90
8862;DHT22;4799;50.996;4.754;2022-12-29T15:38:51;8.60;99.90
8862;DHT22;4799;50.996;4.754;2022-12-29T15:46:21;8.40;99.90
8862;DHT22;4799;50.996;4.754;2022-12-29T15:48:47;8.40;99.90
8862;DHT22;4799;50.996;4.754;2022-12-29T15:51:20;8.30;99.90
8862;DHT22;4799;50.996;4.754;2022-12-29T15:53:48;8.30;99.90
8862;DHT22;4799;50.996;4.754;2022-12-29T15:56:15;8.30;99.90
8862;DHT22;4799;50.996;4.754;2022-12-29T15:58:49;8.30;99.90
8862;DHT22;4799;50.996;4.754;2022-12-29T16:01:25;8.20;99.90
8862;DHT22;4799;50.996;4.754;2022-12-29T16:03:52;8.30;99.90
8862;DHT22;4799;50.996;4.754;2022-12-29T16:11:42;8.20;99.90
8862;DHT22;4799;50.996;4.754;2022-12-29T16:14:14;8.10;99.90
8862;DHT22;4799;50.996;4.754;2022-12-29T16:16:42;8.10;99.90
8862;DHT22;4799;50.996;4.754;2022-12-29T16:21:56;8.20;99.90
8862;DHT22;4799;50.996;4.754;2022-12-29T16:24:26;8.10;99.90
8862;DHT22;4799;50.996;4.754;2022-12-29T16:27:02;8.10;99.90
8862;DHT22;4799;50.996;4.754;2022-12-29T16:29:32;8.10;99.90
8862;DHT22;4799;50.996;4.754;2022-12-29T16:32:00;8.00;99.90
8862;DHT22;4799;50.996;4.754;2022-12-29T16:37:04;7.80;99.90
8862;DHT22;4799;50.996;4.754;2022-12-29T16:39:37;7.70;99.90
8862;DHT22;4799;50.996;4.754;2022-12-29T16:42:33;7.70;99.90
8862;DHT22;4799;50.996;4.754;2022-12-29T16:50:34;7.60;99.90
8862;DHT22;4799;50.996;4.754;2022-12-29T16:53:02;7.60;99.90
8862;DHT22;4799;50.996;4.754;2022-12-29T16:55:28;7.50;99.90
8862;DHT22;4799;50.996;4.754;2022-12-29T16:57:55;7.50;99.90
8862;DHT22;4799;50.996;4.754;2022-12-29T17:00:34;7.50;99.90
8862;DHT22;4799;50.996;4.754;2022-12-29T17:03:01;7.40;99.90
8862;DHT22;4799;50.996;4.754;2022-12-29T17:05:28;7.40;99.90
8862;DHT22;4799;50.996;4.754;2022-12-29T17:07:56;7.30;99.90
8862;DHT22;4799;50.996;4.754;2022-12-29T17:10:26;7.30;99.90
8862;DHT22;4799;50.996;4.754;2022-12-29T17:13:12;7.20;99.90
8862;DHT22;4799;50.996;4.754;2022-12-29T17:15:38;7.10;99.90
8862;DHT22;4799;50.996;4.754;2022-12-29T17:18:04;7.10;99.90
8862;DHT22;4799;50.996;4.754;2022-12-29T17:20:31;7.10;99.90
8862;DHT22;4799;50.996;4.754;2022-12-29T17:22:57;7.10;99.90
8862;DHT22;4799;50.996;4.754;2022-12-29T17:25:30;7.00;99.90
8862;DHT22;4799;50.996;4.754;2022-12-29T17:28:02;7.00;99.90
8862;DHT22;4799;50.996;4.754;2022-12-29T17:30:32;7.00;99.90
8862;DHT22;4799;50.996;4.754;2022-12-29T17:33:04;7.00;99.90
8862;DHT22;4799;50.996;4.754;2022-12-29T17:35:31;7.00;99.90
8862;DHT22;4799;50.996;4.754;2022-12-29T17:37:57;7.00;99.90
8862;DHT22;4799;50.996;4.754;2022-12-29T17:40:27;6.90;99.90
8862;DHT22;4799;50.996;4.754;2022-12-29T17:42:55;6.90;99.90
8862;DHT22;4799;50.996;4.754;2022-12-29T17:45:26;6.90;99.90
8862;DHT22;4799;50.996;4.754;2022-12-29T17:47:53;6.90;99.90
8862;DHT22;4799;50.996;4.754;2022-12-29T17:50:24;6.90;99.90
8862;DHT22;4799;50.996;4.754;2022-12-29T17:53:02;6.90;99.90
8862;DHT22;4799;50.996;4.754;2022-12-29T17:55:28;6.90;99.90
8862;DHT22;4799;50.996;4.754;2022-12-29T17:57:54;6.90;99.90
8862;DHT22;4799;50.996;4.754;2022-12-29T18:00:23;6.80;99.90
8862;DHT22;4799;50.996;4.754;2022-12-29T18:02:49;6.80;99.90
8862;DHT22;4799;50.996;4.754;2022-12-29T18:05:24;6.80;99.90
8862;DHT22;4799;50.996;4.754;2022-12-29T18:07:52;6.80;99.90
8862;DHT22;4799;50.996;4.754;2022-12-29T18:10:19;6.80;99.90
8862;DHT22;4799;50.996;4.754;2022-12-29T18:12:47;6.80;99.90
8862;DHT22;4799;50.996;4.754;2022-12-29T18:15:25;6.80;99.90
8862;DHT22;4799;50.996;4.754;2022-12-29T18:18:09;6.80;99.90
8862;DHT22;4799;50.996;4.754;2022-12-29T18:20:35;6.70;99.90
8862;DHT22;4799;50.996;4.754;2022-12-29T18:23:01;6.70;99.90
8862;DHT22;4799;50.996;4.754;2022-12-29T18:25:42;6.70;99.90
8862;DHT22;4799;50.996;4.754;2022-12-29T18:28:10;6.70;99.90
8862;DHT22;4799;50.996;4.754;2022-12-29T18:30:36;6.70;99.90
8862;DHT22;4799;50.996;4.754;2022-12-29T18:33:02;6.70;99.90
8862;DHT22;4799;50.996;4.754;2022-12-29T18:35:41;6.70;99.90
8862;DHT22;4799;50.996;4.754;2022-12-29T18:38:07;6.60;99.90
8862;DHT22;4799;50.996;4.754;2022-12-29T18:40:34;6.60;99.90
8862;DHT22;4799;50.996;4.754;2022-12-29T18:43:00;6.60;99.90
8862;DHT22;4799;50.996;4.754;2022-12-29T18:45:26;6.60;99.90
8862;DHT22;4799;50.996;4.754;2022-12-29T18:47:52;6.60;99.90
8862;DHT22;4799;50.996;4.754;2022-12-29T18:50:18;6.60;99.90
8862;DHT22;4799;50.996;4.754;2022-12-29T18:52:44;6.60;99.90
8862;DHT22;4799;50.996;4.754;2022-12-29T18:55:16;6.70;99.90
8862;DHT22;4799;50.996;4.754;2022-12-29T18:57:43;6.70;99.90
8862;DHT22;4799;50.996;4.754;2022-12-29T19:00:11;6.70;99.90
8862;DHT22;4799;50.996;4.754;2022-12-29T19:02:37;6.80;99.90
8862;DHT22;4799;50.996;4.754;2022-12-29T19:05:05;6.80;99.90
8862;DHT22;4799;50.996;4.754;2022-12-29T19:07:38;6.90;99.90